Terminal Aerodrome Forecast
Issued by NWS Detroit/Pontiac, MI

Home | Current Version | Previous Version | Text Only | Print | Product List | Glossary On
Versions: 1 2 3 4 5 6 7 8 9 10 11 12 13 14 15 16 17 18 19 20 21 22 23 24 25 26 27 28 29 30 31 32 33 34
994
FTUS43 KDTX 152031 AAB
TAFDTW
TAF AMD
KDTW 152031Z 1521/1624 24018G24KT 4SM -SN OVC020
      TEMPO 1521/1522 1/2SM SN OVC020
     FM152200 27012KT 4SM -SHSN OVC020
     FM152300 26010KT 6SM -SN OVC035
     FM160600 24008KT 6SM -SN OVC025
     FM161100 30006KT 4SM -SHSN OVC020=

USA.gov is the U.S. government's official web portal to all federal, state and local government web resources and services.